createdAt,value
2019-02-19T00:00:35.155Z,65.89
2019-02-19T00:01:35.100Z,65.78
2019-02-19T00:02:35.091Z,66.09
2019-02-19T00:03:35.088Z,65.65
2019-02-19T00:04:35.066Z,65.99
2019-02-19T00:05:35.051Z,65.99
2019-02-19T00:06:35.085Z,65.68
2019-02-19T00:07:35.009Z,65.99
2019-02-19T00:08:35.014Z,65.99
2019-02-19T00:09:35.016Z,65.89
2019-02-19T00:10:35.022Z,65.89
2019-02-19T00:11:35.044Z,65.99
2019-02-19T00:12:34.994Z,66.09
2019-02-19T00:13:35.012Z,65.99
2019-02-19T00:14:34.978Z,66.09
2019-02-19T00:15:34.958Z,65.99
2019-02-19T00:16:34.930Z,65.68
2019-02-19T00:17:34.945Z,65.99
2019-02-19T00:18:34.913Z,65.99
2019-02-19T00:19:34.899Z,65.68
2019-02-19T00:20:34.883Z,66.61
2019-02-19T00:21:34.968Z,65.99
2019-02-19T00:22:34.864Z,66.09
2019-02-19T00:23:34.859Z,66.09
2019-02-19T00:24:34.879Z,66.09
2019-02-19T00:25:34.853Z,66.30
2019-02-19T00:26:34.914Z,66.19
2019-02-19T00:27:34.818Z,66.30
2019-02-19T00:28:34.811Z,66.40
2019-02-19T00:29:34.788Z,66.30
2019-02-19T00:30:34.809Z,66.19
2019-02-19T00:31:34.766Z,66.09
2019-02-19T00:32:34.830Z,65.99
2019-02-19T00:33:34.779Z,65.89
2019-02-19T00:34:34.738Z,66.43
2019-02-19T00:35:34.732Z,66.30
2019-02-19T00:36:34.766Z,66.50
2019-02-19T00:37:34.722Z,66.74
2019-02-19T00:38:34.775Z,67.36
2019-02-19T00:39:34.736Z,67.46
2019-02-19T00:40:34.673Z,67.46
2019-02-19T00:41:34.683Z,67.15
2019-02-19T00:42:34.701Z,67.25
2019-02-19T00:43:34.655Z,67.57
2019-02-19T00:44:34.636Z,67.36
2019-02-19T00:45:34.617Z,67.46
2019-02-19T00:46:34.645Z,67.53
2019-02-19T00:47:34.618Z,67.57
2019-02-19T00:48:34.593Z,67.36
2019-02-19T00:49:34.584Z,67.66
2019-02-19T00:50:34.586Z,67.66
2019-02-19T00:51:34.559Z,67.46
2019-02-19T00:52:34.556Z,67.57
2019-02-19T00:53:34.540Z,67.46
2019-02-19T00:54:34.541Z,67.66
2019-02-19T00:55:34.510Z,67.77
2019-02-19T00:56:34.520Z,67.66
2019-02-19T00:57:34.558Z,67.87
2019-02-19T00:58:34.479Z,67.57
2019-02-19T00:59:34.470Z,67.87
2019-02-19T01:00:34.473Z,67.66
2019-02-19T01:01:34.451Z,68.08
2019-02-19T01:02:34.480Z,68.08
2019-02-19T01:03:34.459Z,67.77
2019-02-19T01:04:34.447Z,68.08
2019-02-19T01:05:34.438Z,67.87
2019-02-19T01:06:34.445Z,68.08
2019-02-19T01:07:34.444Z,67.87
2019-02-19T01:08:34.415Z,68.18
2019-02-19T01:09:34.381Z,68.18
2019-02-19T01:10:34.376Z,68.18
2019-02-19T01:11:34.361Z,67.97
2019-02-19T01:12:34.352Z,68.08
2019-02-19T01:13:34.376Z,67.94
2019-02-19T01:14:34.371Z,67.94
2019-02-19T01:15:34.354Z,67.87
2019-02-19T01:16:34.313Z,67.94
2019-02-19T01:17:34.358Z,67.74
2019-02-19T01:18:34.331Z,67.87
2019-02-19T01:19:34.326Z,67.74
2019-02-19T01:20:34.289Z,67.87
2019-02-19T01:21:34.238Z,68.05
2019-02-19T01:22:34.252Z,67.87
2019-02-19T01:23:34.275Z,67.87
2019-02-19T01:24:34.247Z,67.66
2019-02-19T01:25:34.278Z,67.77
2019-02-19T01:26:34.239Z,67.87
2019-02-19T01:27:34.196Z,67.57
2019-02-19T01:28:34.210Z,68.08
2019-02-19T01:29:34.207Z,67.97
2019-02-19T01:30:34.147Z,67.87
2019-02-19T01:31:34.158Z,68.08
2019-02-19T01:32:34.109Z,67.77
2019-02-19T01:33:34.167Z,68.15
2019-02-19T01:34:34.123Z,68.08
2019-02-19T01:35:34.089Z,67.87
2019-02-19T01:36:34.095Z,67.57
2019-02-19T01:37:34.110Z,68.49
2019-02-19T01:38:34.038Z,68.46
2019-02-19T01:39:34.107Z,68.59
2019-02-19T01:40:34.059Z,68.59
2019-02-19T01:41:34.023Z,68.59
2019-02-19T01:42:34.036Z,68.70
2019-02-19T01:43:34.048Z,68.39
2019-02-19T01:44:34.009Z,68.70
2019-02-19T01:45:34.432Z,68.80
2019-02-19T01:46:33.973Z,68.80
2019-02-19T01:47:33.984Z,68.70
2019-02-19T01:48:33.985Z,68.39
2019-02-19T01:49:33.963Z,69.01
2019-02-19T01:50:33.953Z,69.31
2019-02-19T01:51:33.932Z,69.42
2019-02-19T01:52:33.935Z,69.52
2019-02-19T01:53:33.960Z,69.11
2019-02-19T01:54:33.906Z,69.42
2019-02-19T01:55:33.905Z,69.59
2019-02-19T01:56:33.846Z,69.21
2019-02-19T01:57:33.847Z,69.21
2019-02-19T01:58:33.894Z,69.31
2019-02-19T01:59:33.829Z,69.52
2019-02-19T02:00:33.846Z,68.90
2019-02-19T02:01:33.829Z,69.31
2019-02-19T02:02:33.804Z,69.01
2019-02-19T02:03:33.812Z,69.11
2019-02-19T02:04:33.789Z,69.49
2019-02-19T02:05:33.792Z,69.18
2019-02-19T02:06:33.782Z,69.28
2019-02-19T02:07:33.752Z,69.28
2019-02-19T02:08:33.732Z,69.49
2019-02-19T02:09:33.751Z,69.49
2019-02-19T02:10:33.742Z,69.38
2019-02-19T02:11:33.713Z,69.49
2019-02-19T02:12:33.697Z,69.38
2019-02-19T02:13:33.684Z,69.35
2019-02-19T02:14:33.675Z,69.28
2019-02-19T02:15:33.641Z,69.25
2019-02-19T02:16:33.660Z,69.28
2019-02-19T02:17:33.645Z,69.49
2019-02-19T02:18:33.668Z,69.07
2019-02-19T02:19:33.675Z,69.49
2019-02-19T02:20:33.603Z,69.07
2019-02-19T02:21:33.580Z,69.38
2019-02-19T02:22:33.585Z,69.28
2019-02-19T02:23:33.564Z,68.98
2019-02-19T02:24:33.570Z,69.28
2019-02-19T02:25:33.578Z,69.46
2019-02-19T02:26:33.536Z,69.38
2019-02-19T02:27:33.526Z,69.56
2019-02-19T02:28:33.492Z,69.59
2019-02-19T02:29:33.540Z,69.76
2019-02-19T02:30:33.483Z,69.56
2019-02-19T02:31:33.458Z,69.66
2019-02-19T02:32:33.468Z,69.70
2019-02-19T02:33:33.458Z,69.79
2019-02-19T02:34:33.478Z,70.00
2019-02-19T02:35:33.497Z,70.00
2019-02-19T02:36:33.432Z,70.07
2019-02-19T02:37:33.408Z,70.21
2019-02-19T02:38:33.405Z,69.76
2019-02-19T02:39:33.388Z,69.97
2019-02-19T02:40:33.429Z,70.18
2019-02-19T02:41:33.443Z,70.28
2019-02-19T02:42:33.359Z,70.21
2019-02-19T02:43:33.345Z,70.38
2019-02-19T02:44:33.343Z,70.62
2019-02-19T02:45:33.336Z,70.72
2019-02-19T02:46:33.319Z,70.72
2019-02-19T02:47:33.338Z,70.62
2019-02-19T02:48:33.310Z,70.38
2019-02-19T02:49:33.345Z,70.79
2019-02-19T02:50:33.301Z,70.79
2019-02-19T02:51:33.263Z,70.69
2019-02-19T02:52:33.287Z,70.90
2019-02-19T02:53:33.291Z,70.79
2019-02-19T02:54:33.253Z,71.41
2019-02-19T02:55:33.288Z,70.90
2019-02-19T02:56:33.223Z,71.10
2019-02-19T02:57:33.215Z,71.00
2019-02-19T02:58:33.233Z,71.31
2019-02-19T02:59:33.229Z,71.20
2019-02-19T03:00:33.214Z,71.51
2019-02-19T03:01:33.180Z,71.20
2019-02-19T03:02:33.209Z,71.51
2019-02-19T03:03:33.183Z,71.31
2019-02-19T03:04:33.172Z,71.62
2019-02-19T03:05:33.132Z,71.72
2019-02-19T03:06:33.148Z,71.89
2019-02-19T03:07:33.082Z,71.62
2019-02-19T03:08:33.069Z,72.03
2019-02-19T03:09:33.126Z,72.20
2019-02-19T03:10:33.060Z,72.34
2019-02-19T03:11:33.034Z,72.44
2019-02-19T03:12:33.041Z,72.64
2019-02-19T03:13:33.046Z,72.34
2019-02-19T03:14:33.013Z,72.75
2019-02-19T03:15:33.038Z,72.85
2019-02-19T03:16:32.975Z,71.92
2019-02-19T03:17:32.974Z,72.34
2019-02-19T03:18:32.957Z,72.64
2019-02-19T03:19:32.948Z,72.30
2019-02-19T03:20:32.927Z,72.34
2019-02-19T03:21:32.946Z,72.03
2019-02-19T03:22:32.906Z,72.03
2019-02-19T03:23:32.901Z,71.82
2019-02-19T03:24:32.890Z,72.13
2019-02-19T03:25:32.879Z,72.51
2019-02-19T03:26:32.899Z,72.75
2019-02-19T03:27:32.851Z,72.75
2019-02-19T03:28:32.842Z,72.30
2019-02-19T03:29:32.868Z,72.85
2019-02-19T03:31:53.712Z,73.16
2019-02-19T03:32:52.935Z,73.13
2019-02-19T03:33:52.869Z,73.78
2019-02-19T03:34:52.889Z,73.74
2019-02-19T03:35:52.867Z,73.57
2019-02-19T03:36:52.836Z,73.33
2019-02-19T03:37:52.862Z,73.64
2019-02-19T03:38:52.813Z,73.57
2019-02-19T03:39:52.827Z,74.29
2019-02-19T03:40:52.821Z,74.19
2019-02-19T03:41:52.769Z,73.88
2019-02-19T03:42:52.808Z,73.88
2019-02-19T03:43:52.764Z,74.29
2019-02-19T03:44:52.747Z,74.60
2019-02-19T03:45:52.775Z,74.50
2019-02-19T03:46:52.721Z,74.29
2019-02-19T03:47:52.703Z,74.50
2019-02-19T03:48:52.708Z,74.91
2019-02-19T03:49:52.687Z,75.49
2019-02-19T03:50:52.686Z,75.39
2019-02-19T03:51:52.696Z,75.49
2019-02-19T03:52:52.657Z,75.18
2019-02-19T03:53:52.650Z,75.63
2019-02-19T03:54:52.628Z,75.84
2019-02-19T03:55:52.625Z,76.35
2019-02-19T03:56:52.666Z,76.45
2019-02-19T03:57:52.605Z,76.56
2019-02-19T03:58:52.639Z,77.14
2019-02-19T03:59:52.570Z,77.03
2019-02-19T04:00:52.589Z,77.75
2019-02-19T04:01:52.590Z,77.89
2019-02-19T04:02:52.597Z,77.65
2019-02-19T04:03:52.543Z,77.79
2019-02-19T04:04:52.521Z,77.69
2019-02-19T04:05:52.565Z,77.55
2019-02-19T04:06:52.495Z,77.58
2019-02-19T04:07:52.478Z,77.14
2019-02-19T04:08:52.509Z,77.24
2019-02-19T04:09:52.463Z,77.48
2019-02-19T04:10:52.451Z,77.45
2019-02-19T04:11:52.445Z,77.79
2019-02-19T04:12:52.448Z,77.79
2019-02-19T04:13:52.444Z,77.79
2019-02-19T04:14:52.410Z,78.30
2019-02-19T04:15:52.386Z,78.30
2019-02-19T04:16:52.385Z,78.30
2019-02-19T04:17:52.372Z,78.20
2019-02-19T04:18:52.427Z,78.20
2019-02-19T04:19:52.384Z,77.79
2019-02-19T04:20:52.341Z,78.20
2019-02-19T04:21:52.334Z,78.20
2019-02-19T04:22:52.342Z,78.51
2019-02-19T04:23:52.310Z,78.41
2019-02-19T04:24:52.335Z,78.82
2019-02-19T04:25:52.287Z,78.61
2019-02-19T04:26:52.275Z,78.61
2019-02-19T04:27:52.257Z,78.51
2019-02-19T04:28:52.448Z,78.61
2019-02-19T04:29:52.235Z,78.41
2019-02-19T04:30:52.213Z,78.96
2019-02-19T04:31:52.222Z,79.06
2019-02-19T04:32:52.246Z,78.82
2019-02-19T04:33:52.184Z,78.34
2019-02-19T04:34:52.252Z,78.20
2019-02-19T04:35:52.177Z,78.92
2019-02-19T04:36:52.179Z,79.03
2019-02-19T04:37:52.154Z,79.03
2019-02-19T04:38:52.165Z,79.06
2019-02-19T04:39:52.222Z,78.92
2019-02-19T04:40:52.121Z,78.92
2019-02-19T04:41:52.132Z,79.37
2019-02-19T04:42:52.105Z,79.33
2019-02-19T04:43:52.108Z,79.33
2019-02-19T04:44:52.093Z,79.33
2019-02-19T04:45:52.218Z,79.37
2019-02-19T04:46:52.047Z,79.03
2019-02-19T04:47:52.082Z,79.37
2019-02-19T04:48:52.077Z,79.13
2019-02-19T04:49:52.089Z,79.37
2019-02-19T04:50:52.030Z,79.79
2019-02-19T04:51:52.033Z,78.86
2019-02-19T04:52:51.987Z,79.37
2019-02-19T04:53:51.975Z,79.64
2019-02-19T04:54:52.211Z,79.23
2019-02-19T04:55:51.985Z,79.54
2019-02-19T04:56:51.934Z,79.33
2019-02-19T04:57:51.916Z,79.99
2019-02-19T04:58:51.962Z,79.99
2019-02-19T04:59:51.895Z,79.85
2019-02-19T05:00:51.916Z,80.05
2019-02-19T05:01:51.885Z,79.79
2019-02-19T05:02:51.897Z,79.37
2019-02-19T05:03:51.886Z,80.51
2019-02-19T05:04:51.847Z,79.99
2019-02-19T05:05:51.890Z,79.47
2019-02-19T05:06:51.809Z,80.40
2019-02-19T05:07:51.793Z,80.19
2019-02-19T05:08:51.795Z,80.09
2019-02-19T05:09:51.784Z,80.09
2019-02-19T05:10:51.820Z,80.40
2019-02-19T05:11:51.793Z,80.51
2019-02-19T05:12:51.754Z,80.19
2019-02-19T05:13:51.744Z,80.09
2019-02-19T05:14:51.765Z,80.51
2019-02-19T05:15:51.806Z,80.40
2019-02-19T05:16:51.715Z,80.30
2019-02-19T05:17:51.699Z,80.51
2019-02-19T05:18:51.732Z,80.30
2019-02-19T05:19:51.710Z,80.19
2019-02-19T05:20:51.680Z,79.27
2019-02-19T05:21:51.663Z,80.19
2019-02-19T05:22:51.670Z,80.61
2019-02-19T05:23:51.676Z,80.71
2019-02-19T05:24:51.649Z,80.09
2019-02-19T05:25:51.671Z,80.19
2019-02-19T05:26:51.604Z,80.19
2019-02-19T05:27:51.662Z,80.30
2019-02-19T05:28:51.562Z,80.19
2019-02-19T05:29:51.606Z,80.19
2019-02-19T05:30:51.586Z,80.19
2019-02-19T05:31:51.580Z,79.99
2019-02-19T05:32:51.683Z,80.19
2019-02-19T05:33:51.556Z,80.51
2019-02-19T05:34:51.544Z,80.30
2019-02-19T05:35:51.560Z,79.88
2019-02-19T05:36:51.526Z,80.51
2019-02-19T05:37:51.493Z,80.51
2019-02-19T05:38:51.520Z,80.51
2019-02-19T05:39:51.465Z,80.40
2019-02-19T05:40:51.456Z,81.23
2019-02-19T05:41:51.479Z,80.91
2019-02-19T05:42:51.450Z,80.81
2019-02-19T05:43:51.457Z,80.81
2019-02-19T05:44:51.463Z,80.81
2019-02-19T05:45:51.413Z,80.91
2019-02-19T05:46:51.402Z,81.02
2019-02-19T05:47:51.409Z,80.91
2019-02-19T05:48:51.404Z,80.91
2019-02-19T05:49:51.432Z,80.71
2019-02-19T05:50:51.366Z,80.91
2019-02-19T05:51:51.376Z,81.02
2019-02-19T05:52:51.345Z,81.02
2019-02-19T05:53:51.296Z,80.57
2019-02-19T05:54:51.286Z,80.81
2019-02-19T05:55:51.323Z,81.23
2019-02-19T05:56:51.344Z,80.71
2019-02-19T05:57:51.306Z,80.61
2019-02-19T05:58:51.283Z,80.61
2019-02-19T05:59:51.297Z,80.71
2019-02-19T06:00:51.278Z,80.71
2019-02-19T06:01:51.289Z,80.91
2019-02-19T06:02:51.231Z,80.81
2019-02-19T06:03:51.213Z,80.71
2019-02-19T06:04:51.214Z,80.81
2019-02-19T06:05:51.201Z,80.71
2019-02-19T06:06:51.228Z,80.91
2019-02-19T06:07:51.174Z,80.91
2019-02-19T06:08:51.163Z,81.12
2019-02-19T06:09:51.134Z,81.12
2019-02-19T06:10:51.126Z,81.33
2019-02-19T06:11:51.098Z,81.74
2019-02-19T06:12:51.165Z,81.95
2019-02-19T06:13:51.100Z,82.15
2019-02-19T06:14:51.080Z,81.84
2019-02-19T06:15:51.083Z,81.84
2019-02-19T06:16:58.252Z,81.02
2019-02-19T06:17:52.065Z,81.12
2019-02-19T06:18:51.052Z,81.02
2019-02-19T06:19:51.056Z,81.33
2019-02-19T06:20:51.063Z,81.12
2019-02-19T06:21:51.081Z,81.02
2019-02-19T06:22:51.006Z,81.33
2019-02-19T06:23:52.710Z,80.71
2019-02-19T06:24:50.980Z,80.81
2019-02-19T06:25:50.959Z,80.71
2019-02-19T06:26:50.931Z,80.91
2019-02-19T06:27:50.955Z,81.84
2019-02-19T06:28:50.918Z,81.43
2019-02-19T06:29:50.948Z,81.53
2019-02-19T06:30:50.959Z,81.23
2019-02-19T06:31:50.919Z,80.61
2019-02-19T06:32:50.934Z,81.33
2019-02-19T06:33:50.859Z,81.43
2019-02-19T06:34:50.818Z,81.84
2019-02-19T06:35:50.823Z,81.53
2019-02-19T06:36:50.826Z,81.12
2019-02-19T06:37:50.837Z,81.63
2019-02-19T06:38:50.784Z,81.53
2019-02-19T06:39:50.760Z,81.63
2019-02-19T06:40:50.747Z,81.43
2019-02-19T06:41:50.741Z,81.43
2019-02-19T06:42:50.802Z,81.53
2019-02-19T06:43:50.737Z,81.53
2019-02-19T06:44:50.723Z,81.74
2019-02-19T06:45:50.741Z,81.53
2019-02-19T06:46:50.717Z,81.33
2019-02-19T06:47:50.693Z,81.74
2019-02-19T06:48:50.681Z,81.95
2019-02-19T06:49:50.669Z,81.33
2019-02-19T06:50:50.638Z,81.53
2019-02-19T06:51:50.650Z,81.12
2019-02-19T06:52:50.671Z,81.02
2019-02-19T06:53:50.635Z,80.71
2019-02-19T06:54:50.624Z,80.71
2019-02-19T06:55:50.604Z,80.71
2019-02-19T06:56:50.595Z,80.61
2019-02-19T06:57:50.621Z,81.12
2019-02-19T06:58:50.601Z,80.91
2019-02-19T06:59:50.545Z,81.12
2019-02-19T07:00:50.548Z,81.33
2019-02-19T07:01:50.571Z,81.23
2019-02-19T07:02:50.532Z,81.23
2019-02-19T07:03:50.530Z,81.53
2019-02-19T07:04:50.499Z,81.12
2019-02-19T07:05:50.493Z,80.61
2019-02-19T07:06:50.478Z,81.33
2019-02-19T07:07:50.466Z,81.23
2019-02-19T07:08:50.466Z,81.33
2019-02-19T07:09:50.419Z,81.02
2019-02-19T07:10:50.442Z,80.81
2019-02-19T07:11:50.401Z,80.71
2019-02-19T07:12:50.443Z,80.40
2019-02-19T07:13:50.449Z,80.81
2019-02-19T07:14:50.375Z,80.67
2019-02-19T07:15:50.399Z,80.81
2019-02-19T07:16:50.387Z,80.91
2019-02-19T07:17:50.351Z,80.81
2019-02-19T07:18:50.371Z,81.02
2019-02-19T07:19:50.349Z,80.71
2019-02-19T07:20:50.348Z,80.91
2019-02-19T07:21:50.331Z,81.12
2019-02-19T07:22:50.324Z,80.91
2019-02-19T07:23:50.316Z,81.02
2019-02-19T07:24:50.301Z,80.71
2019-02-19T07:25:50.279Z,80.81
2019-02-19T07:26:50.273Z,80.91
2019-02-19T07:27:50.254Z,80.81
2019-02-19T07:28:50.237Z,80.91
2019-02-19T07:29:50.247Z,80.81
2019-02-19T07:30:50.205Z,80.61
2019-02-19T07:31:50.194Z,80.81
2019-02-19T07:32:50.179Z,80.71
2019-02-19T07:33:50.166Z,80.91
2019-02-19T07:34:50.162Z,80.81
2019-02-19T07:35:50.140Z,80.81
2019-02-19T07:36:50.128Z,80.71
2019-02-19T07:37:50.120Z,81.12
2019-02-19T07:38:50.124Z,80.51
2019-02-19T07:39:50.095Z,80.40
2019-02-19T07:40:50.097Z,79.88
2019-02-19T07:41:50.088Z,80.36
2019-02-19T07:42:50.055Z,80.19
2019-02-19T07:43:50.076Z,80.51
2019-02-19T07:44:50.089Z,79.79
2019-02-19T07:45:50.022Z,79.27
2019-02-19T07:46:50.028Z,79.44
2019-02-19T07:47:50.029Z,80.16
2019-02-19T07:48:50.008Z,80.30
2019-02-19T07:49:49.997Z,79.95
2019-02-19T07:50:49.997Z,80.05
2019-02-19T07:51:49.992Z,79.64
2019-02-19T07:52:49.957Z,79.99
2019-02-19T07:53:49.971Z,79.85
2019-02-19T07:54:49.941Z,79.99
2019-02-19T07:55:49.933Z,79.88
2019-02-19T07:56:49.922Z,79.88
2019-02-19T07:57:49.883Z,79.99
2019-02-19T07:58:49.872Z,80.09
2019-02-19T07:59:49.913Z,79.88
2019-02-19T08:00:49.842Z,79.95
2019-02-19T08:01:49.842Z,79.27
2019-02-19T08:02:49.901Z,79.23
2019-02-19T08:03:49.836Z,79.16
2019-02-19T08:04:49.840Z,79.47
2019-02-19T08:05:49.865Z,79.79
2019-02-19T08:06:49.772Z,79.68
2019-02-19T08:07:49.784Z,80.30
2019-02-19T08:08:49.753Z,79.79
2019-02-19T08:09:49.787Z,80.09
2019-02-19T08:10:49.767Z,79.79
2019-02-19T08:11:49.800Z,79.47
2019-02-19T08:12:49.779Z,78.86
2019-02-19T08:13:49.740Z,78.86
2019-02-19T08:14:49.728Z,78.86
2019-02-19T08:15:49.751Z,79.58
2019-02-19T08:16:49.713Z,79.79
2019-02-19T08:17:49.789Z,79.37
2019-02-19T08:18:49.633Z,78.86
2019-02-19T08:19:49.644Z,79.27
2019-02-19T08:20:49.615Z,79.37
2019-02-19T08:21:49.680Z,79.16
2019-02-19T08:22:49.615Z,78.75
2019-02-19T08:23:49.631Z,78.34
2019-02-19T08:24:49.586Z,78.44
2019-02-19T08:25:49.566Z,79.16
2019-02-19T08:26:49.559Z,78.96
2019-02-19T08:27:51.251Z,78.55
2019-02-19T08:28:49.548Z,78.55
2019-02-19T08:29:49.532Z,78.75
2019-02-19T08:30:49.518Z,78.24
2019-02-19T08:31:49.598Z,78.20
2019-02-19T08:32:49.506Z,78.24
2019-02-19T08:33:49.563Z,78.44
2019-02-19T08:34:49.480Z,78.00
2019-02-19T08:35:49.501Z,78.10
2019-02-19T08:36:49.482Z,77.93
2019-02-19T08:37:49.450Z,78.44
2019-02-19T08:38:49.424Z,77.69
2019-02-19T08:39:49.486Z,78.14
2019-02-19T08:40:49.414Z,78.20
2019-02-19T08:41:49.404Z,78.30
2019-02-19T08:42:49.385Z,77.58
2019-02-19T08:43:49.429Z,77.79
2019-02-19T08:44:49.355Z,78.41
2019-02-19T08:45:49.367Z,78.20
2019-02-19T08:46:49.350Z,78.30
2019-02-19T08:47:49.360Z,77.79
2019-02-19T08:48:49.311Z,78.30
2019-02-19T08:49:49.349Z,78.30
2019-02-19T08:50:49.299Z,77.89
2019-02-19T08:51:55.942Z,77.75
2019-02-19T08:52:50.263Z,77.55
2019-02-19T08:53:49.241Z,77.14
2019-02-19T08:54:49.246Z,77.03
2019-02-19T08:55:49.238Z,77.65
2019-02-19T08:56:49.267Z,77.65
2019-02-19T08:57:49.240Z,77.75
2019-02-19T08:58:49.225Z,77.72
2019-02-19T08:59:49.173Z,78.06
2019-02-19T09:00:49.193Z,77.92
2019-02-19T09:01:49.232Z,76.59
2019-02-19T09:02:49.196Z,76.90
2019-02-19T09:03:49.147Z,76.69
2019-02-19T09:04:49.147Z,76.59
2019-02-19T09:05:49.144Z,76.48
2019-02-19T09:06:49.135Z,76.90
2019-02-19T09:07:49.141Z,76.28
2019-02-19T09:08:49.112Z,76.35
2019-02-19T09:09:49.072Z,75.93
2019-02-19T09:10:49.060Z,75.93
2019-02-19T09:11:49.052Z,75.93
2019-02-19T09:12:49.077Z,75.93
2019-02-19T09:13:49.025Z,75.73
2019-02-19T09:14:49.484Z,75.73
2019-02-19T09:15:49.010Z,75.63
2019-02-19T09:16:48.996Z,75.42
2019-02-19T09:17:51.988Z,75.08
2019-02-19T09:18:48.989Z,75.32
2019-02-19T09:19:48.971Z,74.36
2019-02-19T09:20:48.984Z,74.77
2019-02-19T09:21:48.969Z,74.77
2019-02-19T09:22:48.948Z,74.50
2019-02-19T09:23:48.923Z,74.19
2019-02-19T09:24:48.920Z,75.59
2019-02-19T09:25:48.911Z,75.29
2019-02-19T09:26:48.925Z,75.63
2019-02-19T09:27:48.922Z,75.49
2019-02-19T09:28:48.864Z,75.49
2019-02-19T09:29:48.855Z,75.42
2019-02-19T09:30:48.868Z,75.21
2019-02-19T09:31:48.809Z,75.32
2019-02-19T09:32:48.866Z,75.32
2019-02-19T09:33:48.786Z,75.21
2019-02-19T09:34:48.775Z,75.18
2019-02-19T09:35:48.788Z,75.29
2019-02-19T09:36:48.819Z,75.49
2019-02-19T09:37:48.747Z,75.49
2019-02-19T09:38:48.837Z,75.18
2019-02-19T09:39:48.771Z,75.49
2019-02-19T09:40:48.732Z,75.49
2019-02-19T09:41:48.722Z,74.15
2019-02-19T09:42:48.717Z,74.36
2019-02-19T09:43:48.731Z,74.32
2019-02-19T09:44:48.691Z,73.50
2019-02-19T09:45:48.674Z,73.71
2019-02-19T09:46:48.687Z,73.71
2019-02-19T09:47:48.674Z,73.61
2019-02-19T09:48:48.700Z,73.71
2019-02-19T09:49:48.632Z,73.71
2019-02-19T09:50:48.635Z,73.81
2019-02-19T09:51:48.633Z,73.40
2019-02-19T09:52:48.623Z,73.40
2019-02-19T09:53:48.653Z,73.50
2019-02-19T09:54:48.609Z,73.61
2019-02-19T09:55:48.590Z,73.71
2019-02-19T09:56:48.559Z,72.44
2019-02-19T09:57:48.566Z,72.55
2019-02-19T09:58:48.606Z,72.44
2019-02-19T09:59:48.522Z,72.06
2019-02-19T10:00:48.518Z,72.68
2019-02-19T10:01:48.506Z,71.97
2019-02-19T10:02:48.499Z,72.58
2019-02-19T10:03:48.616Z,72.48
2019-02-19T10:04:48.475Z,71.97
2019-02-19T10:05:48.590Z,72.48
2019-02-19T10:06:48.428Z,72.31
2019-02-19T10:07:48.487Z,71.45
2019-02-19T10:08:48.450Z,72.31
2019-02-19T10:09:48.467Z,72.10
2019-02-19T10:10:48.426Z,72.00
2019-02-19T10:11:48.416Z,72.41
2019-02-19T10:12:48.379Z,72.38
2019-02-19T10:13:48.404Z,72.61
2019-02-19T10:14:48.378Z,72.38
2019-02-19T10:15:48.354Z,72.00
2019-02-19T10:16:48.316Z,72.06
2019-02-19T10:17:48.324Z,72.27
2019-02-19T10:18:48.332Z,72.17
2019-02-19T10:19:48.337Z,72.38
2019-02-19T10:20:48.295Z,72.38
2019-02-19T10:21:48.276Z,71.76
2019-02-19T10:22:49.067Z,72.06
2019-02-19T10:23:48.258Z,71.86
2019-02-19T10:24:48.666Z,71.62
2019-02-19T10:25:48.237Z,71.21
2019-02-19T10:26:49.624Z,71.01
2019-02-19T10:27:48.203Z,71.11
2019-02-19T10:28:48.195Z,71.01
2019-02-19T10:29:48.188Z,71.42
2019-02-19T10:30:48.227Z,69.78
2019-02-19T10:31:48.158Z,69.98
2019-02-19T10:32:48.144Z,70.05
2019-02-19T10:33:48.149Z,68.96
2019-02-19T10:34:48.119Z,69.06
2019-02-19T10:35:48.101Z,68.85
2019-02-19T10:36:48.152Z,68.85
2019-02-19T10:37:48.107Z,69.16
2019-02-19T10:38:48.127Z,69.23
2019-02-19T10:39:48.062Z,69.13
2019-02-19T10:40:48.073Z,68.51
2019-02-19T10:41:48.088Z,68.51
2019-02-19T10:42:48.074Z,68.21
2019-02-19T10:43:48.039Z,68.41
2019-02-19T10:44:48.023Z,68.41
2019-02-19T10:45:48.043Z,68.27
2019-02-19T10:46:48.000Z,68.41
2019-02-19T10:47:47.988Z,68.62
2019-02-19T10:48:47.980Z,68.51
2019-02-19T10:49:47.984Z,68.10
2019-02-19T10:50:47.967Z,68.51
2019-02-19T10:51:47.943Z,68.82
2019-02-19T10:52:47.934Z,68.27
2019-02-19T10:53:47.914Z,68.59
2019-02-19T10:54:48.002Z,68.27
2019-02-19T10:55:47.969Z,68.59
2019-02-19T10:56:47.919Z,67.56
2019-02-19T10:57:47.876Z,67.25
2019-02-19T10:58:47.867Z,67.05
2019-02-19T10:59:47.864Z,67.22
2019-02-19T11:00:47.881Z,67.05
2019-02-19T11:01:47.850Z,67.25
2019-02-19T11:02:47.821Z,67.25
2019-02-19T11:03:47.809Z,67.11
2019-02-19T11:04:47.801Z,66.74
2019-02-19T11:05:47.828Z,67.11
2019-02-19T11:06:47.840Z,66.94
2019-02-19T11:07:47.771Z,66.43
2019-02-19T11:08:47.761Z,66.74
2019-02-19T11:09:47.743Z,66.50
2019-02-19T11:10:47.755Z,67.02
2019-02-19T11:11:47.703Z,67.25
2019-02-19T11:12:47.773Z,66.40
2019-02-19T11:13:47.693Z,67.02
2019-02-19T11:14:47.689Z,67.02
2019-02-19T11:15:47.686Z,67.02
2019-02-19T11:16:47.664Z,66.74
2019-02-19T11:17:47.671Z,66.63
2019-02-19T11:18:47.637Z,66.33
2019-02-19T11:19:47.649Z,66.50
2019-02-19T11:20:47.627Z,66.33
2019-02-19T11:21:47.646Z,67.25
2019-02-19T11:22:47.674Z,66.94
2019-02-19T11:23:47.579Z,67.35
2019-02-19T11:24:47.586Z,66.94
2019-02-19T11:25:47.570Z,66.94
2019-02-19T11:26:47.589Z,67.35
2019-02-19T11:27:47.543Z,67.14
2019-02-19T11:28:47.575Z,67.35
2019-02-19T11:29:47.553Z,67.05
2019-02-19T11:30:47.492Z,66.33
2019-02-19T11:31:47.575Z,66.12
2019-02-19T11:32:47.505Z,66.02
2019-02-19T11:33:47.513Z,66.02
2019-02-19T11:34:47.507Z,66.74
2019-02-19T11:35:47.490Z,67.11
2019-02-19T11:36:47.469Z,66.50
2019-02-19T11:37:47.508Z,66.30
2019-02-19T11:38:47.454Z,65.99
2019-02-19T11:39:47.465Z,65.48
2019-02-19T11:40:47.418Z,65.58
2019-02-19T11:41:47.428Z,65.58
2019-02-19T11:42:47.449Z,65.55
2019-02-19T11:43:47.352Z,65.34
2019-02-19T11:44:47.365Z,65.24
2019-02-19T11:45:47.352Z,64.73
2019-02-19T11:46:47.399Z,65.24
2019-02-19T11:47:47.302Z,65.24
2019-02-19T11:48:47.363Z,64.62
2019-02-19T11:49:47.302Z,64.94
2019-02-19T11:50:47.309Z,64.62
2019-02-19T11:51:47.289Z,65.24
2019-02-19T11:52:47.296Z,65.34
2019-02-19T11:53:47.284Z,65.55
2019-02-19T11:54:47.270Z,65.55
2019-02-19T11:55:47.283Z,65.45
2019-02-19T11:56:47.222Z,65.24
2019-02-19T11:57:47.255Z,65.24
2019-02-19T11:58:47.203Z,65.07
2019-02-19T11:59:47.208Z,64.97
2019-02-19T12:00:47.201Z,64.97
2019-02-19T12:01:47.195Z,64.97
2019-02-19T12:02:47.220Z,64.76
2019-02-19T12:03:47.138Z,64.73
2019-02-19T12:04:47.155Z,64.56
2019-02-19T12:05:47.186Z,64.53
2019-02-19T12:06:47.094Z,65.27
2019-02-19T12:07:47.075Z,65.27
2019-02-19T12:08:47.117Z,65.24
2019-02-19T12:09:47.093Z,65.24
2019-02-19T12:10:47.059Z,65.14
2019-02-19T12:11:47.048Z,65.34
2019-02-19T12:12:47.041Z,65.45
2019-02-19T12:13:47.048Z,65.45
2019-02-19T12:14:47.085Z,65.04
2019-02-19T12:15:47.070Z,65.24
2019-02-19T12:16:46.985Z,65.34
2019-02-19T12:17:46.983Z,65.04
2019-02-19T12:18:47.004Z,65.21
2019-02-19T12:19:46.982Z,64.62
2019-02-19T12:20:46.955Z,64.73
2019-02-19T12:21:46.968Z,64.50
2019-02-19T12:22:46.949Z,64.70
2019-02-19T12:23:46.988Z,64.80
2019-02-19T12:24:46.936Z,64.80
2019-02-19T12:25:46.879Z,64.50
2019-02-19T12:26:46.900Z,63.47
2019-02-19T12:27:46.991Z,63.68
2019-02-19T12:28:46.923Z,63.50
2019-02-19T12:29:46.860Z,63.50
2019-02-19T12:30:46.851Z,63.60
2019-02-19T12:31:46.866Z,64.42
2019-02-19T12:32:46.823Z,64.62
2019-02-19T12:33:46.912Z,64.94
2019-02-19T12:34:46.803Z,64.62
2019-02-19T12:35:46.835Z,64.62
2019-02-19T12:36:46.762Z,64.73
2019-02-19T12:37:46.765Z,65.34
2019-02-19T12:38:46.781Z,64.94
2019-02-19T12:39:46.822Z,65.07
2019-02-19T12:40:46.751Z,65.24
2019-02-19T12:41:46.706Z,65.24
2019-02-19T12:42:46.722Z,65.14
2019-02-19T12:43:46.699Z,65.24
2019-02-19T12:44:46.724Z,65.24
2019-02-19T12:45:46.705Z,65.04
2019-02-19T12:46:46.669Z,65.04
2019-02-19T12:47:46.635Z,65.24
2019-02-19T12:48:54.388Z,65.24
2019-02-19T12:49:47.672Z,65.34
2019-02-19T12:50:46.635Z,65.14
2019-02-19T12:51:46.613Z,65.24
2019-02-19T12:52:46.578Z,65.04
2019-02-19T12:53:46.596Z,65.14